Time;durP1;ratioP1;P1;durP2;ratioP2;P2;SDS_P1;SDS_P2;PMS_P1;PMS_P2;Temp;Humidity;BMP_temperature;BMP_pressure;BME280_temperature;BME280_humidity;BME280_pressure;Samples;Min_cycle;Max_cycle;Signal;HPM_P1;HPM_P2
2022/07/23 07:49:36;;;;;;;10.10;9.10;;;24.10;99.90;;;;;;5103649;27;21343;-74
2022/07/23 07:52:03;;;;;;;14.20;9.70;;;23.50;99.90;;;;;;5103403;28;20495;-75
2022/07/23 07:54:30;;;;;;;11.00;9.50;;;23.40;99.90;;;;;;5102291;28;20488;-75
2022/07/23 07:56:57;;;;;;;10.37;8.73;;;23.30;99.90;;;;;;5103013;28;21328;-75
2022/07/23 07:59:24;;;;;;;9.90;8.90;;;23.30;99.90;;;;;;5102938;28;20454;-76
2022/07/23 08:01:51;;;;;;;9.97;8.20;;;23.30;99.90;;;;;;5103111;28;21020;-76
2022/07/23 08:04:17;;;;;;;9.83;8.30;;;23.20;99.90;;;;;;5101989;28;20454;-75
2022/07/23 08:06:46;;;;;;;8.90;8.00;;;23.20;99.90;;;;;;5103084;28;20953;-76
2022/07/23 08:09:12;;;;;;;10.00;9.00;;;23.20;99.90;;;;;;5103088;28;20490;-76
2022/07/23 08:11:39;;;;;;;9.03;7.63;;;23.20;99.90;;;;;;5102850;28;20475;-76
2022/07/23 08:14:06;;;;;;;11.57;8.00;;;23.10;99.90;;;;;;5102325;28;20454;-76
2022/07/23 08:16:33;;;;;;;8.87;8.03;;;23.00;99.90;;;;;;5103245;28;20458;-75
2022/07/23 08:19:00;;;;;;;8.70;7.60;;;23.00;99.90;;;;;;5102897;28;20461;-75
2022/07/23 08:21:26;;;;;;;8.60;6.90;;;23.00;99.90;;;;;;5102778;28;20496;-75
2022/07/23 08:24:02;;;;;;;8.43;7.57;;;23.10;99.90;;;;;;5103022;28;20462;-76
2022/07/23 08:26:29;;;;;;;10.03;7.70;;;23.20;99.90;;;;;;5102644;28;21018;-76
2022/07/23 08:28:56;;;;;;;8.53;7.53;;;23.20;99.90;;;;;;5102598;28;20485;-76
2022/07/23 08:31:23;;;;;;;8.90;7.87;;;23.10;99.90;;;;;;5102430;28;20549;-76
2022/07/23 08:33:50;;;;;;;9.10;7.87;;;23.00;99.90;;;;;;5102493;28;20951;-75
2022/07/23 08:36:16;;;;;;;9.87;8.57;;;23.00;99.90;;;;;;5101959;28;20451;-76
2022/07/23 08:38:43;;;;;;;10.73;8.40;;;23.00;99.90;;;;;;5102470;28;20443;-75
2022/07/23 08:41:12;;;;;;;11.37;9.17;;;23.00;99.90;;;;;;5087977;28;20479;-75
2022/07/23 08:43:40;;;;;;;11.80;9.37;;;23.00;99.90;;;;;;5082053;28;20451;-75
2022/07/23 08:46:07;;;;;;;11.33;9.27;;;22.90;99.90;;;;;;5081464;28;20456;-75
2022/07/23 08:48:36;;;;;;;11.70;8.83;;;23.00;99.90;;;;;;5098887;28;20500;-75
2022/07/23 08:51:05;;;;;;;10.23;9.13;;;23.00;99.90;;;;;;5102096;28;20477;-75
2022/07/23 08:53:35;;;;;;;13.93;9.63;;;22.90;99.90;;;;;;5085207;28;20455;-71
2022/07/23 08:56:03;;;;;;;10.70;9.00;;;23.00;99.90;;;;;;5081815;28;20458;-70
2022/07/23 08:58:33;;;;;;;10.60;9.50;;;23.00;99.90;;;;;;5080608;28;20958;-70
2022/07/23 09:01:00;;;;;;;12.20;9.60;;;23.00;99.90;;;;;;5067189;28;20476;-71
2022/07/23 09:03:28;;;;;;;10.47;8.90;;;23.00;99.90;;;;;;5068312;28;20821;-70
2022/07/23 09:05:56;;;;;;;9.30;8.30;;;22.90;99.90;;;;;;5067788;28;20466;-69
2022/07/23 09:08:25;;;;;;;9.93;8.93;;;22.90;99.90;;;;;;5068360;28;20502;-70
2022/07/23 09:10:54;;;;;;;10.43;9.10;;;22.90;99.90;;;;;;5068053;28;20493;-70
2022/07/23 09:13:32;;;;;;;11.17;9.57;;;23.00;99.90;;;;;;5067788;28;20462;-70
2022/07/23 09:16:01;;;;;;;9.50;8.60;;;23.00;99.90;;;;;;5067575;28;20464;-70
2022/07/23 09:18:41;;;;;;;10.73;8.37;;;23.10;99.90;;;;;;5067857;28;20455;-69
2022/07/23 09:21:23;;;;;;;9.10;7.70;;;23.20;99.90;;;;;;5067986;28;20487;-69
2022/07/23 09:23:53;;;;;;;13.27;7.40;;;23.30;99.90;;;;;;5068078;28;20531;-71
2022/07/23 09:26:32;;;;;;;6.93;6.27;;;23.40;99.90;;;;;;5067191;28;20454;-71
2022/07/23 09:29:06;;;;;;;7.50;6.80;;;23.50;99.90;;;;;;5071583;28;20641;-69
2022/07/23 09:31:42;;;;;;;7.43;6.70;;;23.60;99.90;;;;;;5067344;28;20488;-71
2022/07/23 09:34:11;;;;;;;6.70;6.10;;;23.90;99.90;;;;;;5067236;28;20447;-71
2022/07/23 09:36:39;;;;;;;6.83;5.20;;;24.00;99.90;;;;;;5066135;28;20517;-70
2022/07/23 09:39:07;;;;;;;7.33;6.60;;;24.20;99.90;;;;;;5067725;28;20458;-71
2022/07/23 09:41:39;;;;;;;6.83;6.13;;;24.30;99.90;;;;;;5067221;28;20484;-71
2022/07/23 09:44:17;;;;;;;8.87;6.80;;;24.40;99.90;;;;;;5066613;28;20452;-71
2022/07/23 09:46:45;;;;;;;7.43;6.50;;;24.50;99.90;;;;;;5065802;28;21008;-68
2022/07/23 09:49:20;;;;;;;7.33;6.63;;;24.40;99.90;;;;;;5067161;28;20527;-70
2022/07/23 09:51:52;;;;;;;10.07;7.40;;;24.50;99.90;;;;;;5067747;28;20861;-70
2022/07/23 09:54:31;;;;;;;7.90;7.10;;;24.60;99.90;;;;;;5066805;28;20546;-70
2022/07/23 09:56:58;;;;;;;11.07;7.63;;;24.70;99.90;;;;;;5067147;28;20474;-70
2022/07/23 09:59:30;;;;;;;7.87;7.07;;;24.80;99.90;;;;;;5067030;28;21244;-69
2022/07/23 10:01:59;;;;;;;9.50;7.20;;;24.90;99.90;;;;;;5067147;28;20991;-70
2022/07/23 10:04:27;;;;;;;7.60;6.87;;;25.10;99.90;;;;;;5066434;28;21445;-70
2022/07/23 10:06:55;;;;;;;7.70;6.67;;;25.30;99.90;;;;;;5067381;28;20460;-70
2022/07/23 10:09:26;;;;;;;8.83;7.70;;;25.50;99.90;;;;;;5067460;28;20499;-70
2022/07/23 10:11:56;;;;;;;9.73;7.73;;;25.60;99.90;;;;;;5067012;28;20484;-73
2022/07/23 10:14:23;;;;;;;9.30;7.20;;;25.70;99.90;;;;;;5066040;28;20459;-76
2022/07/23 10:16:51;;;;;;;7.83;6.30;;;25.70;99.90;;;;;;5066678;28;20502;-76
2022/07/23 10:19:19;;;;;;;6.87;6.17;;;25.90;99.90;;;;;;5066744;28;20470;-76
2022/07/23 10:21:49;;;;;;;6.97;5.30;;;25.90;99.90;;;;;;5066234;28;20476;-75
2022/07/23 10:24:37;;;;;;;7.13;6.00;;;26.00;99.90;;;;;;5066311;28;20459;-75
2022/07/23 10:27:21;;;;;;;10.80;6.47;;;26.10;99.90;;;;;;5066795;28;20449;-76
2022/07/23 10:29:53;;;;;;;8.00;6.80;;;26.20;99.90;;;;;;5065138;28;21100;-77
2022/07/23 10:32:41;;;;;;;6.40;5.73;;;26.30;99.90;;;;;;5065456;28;20476;-76
2022/07/23 10:35:13;;;;;;;6.67;5.93;;;26.50;99.90;;;;;;5064979;28;20456;-76
2022/07/23 10:37:44;;;;;;;6.13;5.43;;;26.50;99.90;;;;;;5065579;28;20467;-76
2022/07/23 10:40:14;;;;;;;6.33;5.73;;;26.60;99.90;;;;;;5065452;28;20819;-76
2022/07/23 10:42:41;;;;;;;6.57;5.97;;;26.60;99.90;;;;;;5065414;28;20542;-75
2022/07/23 10:45:26;;;;;;;7.13;6.40;;;26.60;99.90;;;;;;5064377;28;21433;-77
2022/07/23 10:47:54;;;;;;;8.70;6.40;;;26.80;99.90;;;;;;5064739;28;20456;-77
2022/07/23 10:50:23;;;;;;;7.00;6.30;;;26.90;99.90;;;;;;5084183;28;20483;-76
2022/07/23 10:53:19;;;;;;;9.80;6.60;;;26.80;99.90;;;;;;5085261;28;20463;-76
2022/07/23 10:55:52;;;;;;;7.30;6.60;;;26.80;99.90;;;;;;5083368;28;20463;-76
2022/07/23 10:58:44;;;;;;;7.97;7.17;;;26.90;99.90;;;;;;5079299;28;20427;-71
2022/07/23 11:01:36;;;;;;;6.70;6.00;;;26.90;99.90;;;;;;5064192;28;20853;-70
2022/07/23 11:04:07;;;;;;;6.87;6.17;;;27.00;99.90;;;;;;5065171;28;20447;-70
2022/07/23 11:07:08;;;;;;;7.17;6.27;;;27.00;99.90;;;;;;5065681;28;20448;-70
2022/07/23 11:09:41;;;;;;;8.90;5.70;;;27.00;99.90;;;;;;5065242;28;20540;-70
2022/07/23 11:12:36;;;;;;;6.37;5.77;;;27.00;99.90;;;;;;5065996;28;20515;-70
2022/07/23 11:15:05;;;;;;;6.43;5.90;;;27.20;99.90;;;;;;5064848;28;20456;-70
2022/07/23 11:17:34;;;;;;;5.93;5.33;;;27.40;99.90;;;;;;5077835;28;20462;-70
2022/07/23 11:20:23;;;;;;;6.07;5.50;;;27.40;99.90;;;;;;5085228;28;20455;-70
2022/07/23 11:22:52;;;;;;;7.10;5.57;;;27.40;99.90;;;;;;5083844;28;20462;-70
2022/07/23 11:25:36;;;;;;;6.60;5.90;;;27.40;99.90;;;;;;5084762;28;20987;-70
2022/07/23 11:28:12;;;;;;;7.20;6.07;;;27.40;99.90;;;;;;5074819;28;20458;-70
2022/07/23 11:30:40;;;;;;;6.33;5.50;;;27.50;99.90;;;;;;5083493;28;20499;-70
2022/07/23 11:33:19;;;;;;;6.30;5.70;;;27.50;99.90;;;;;;5084806;28;20457;-70
2022/07/23 11:35:50;;;;;;;6.40;5.80;;;27.50;99.90;;;;;;5093579;28;20461;-70
2022/07/23 11:38:19;;;;;;;7.17;5.60;;;27.50;99.90;;;;;;5069900;28;20459;-70
2022/07/23 11:40:49;;;;;;;6.53;5.87;;;27.50;99.90;;;;;;5064930;28;21006;-70
2022/07/23 11:43:18;;;;;;;6.10;5.50;;;27.60;99.90;;;;;;5065431;28;21062;-70
2022/07/23 11:45:46;;;;;;;6.23;5.50;;;27.70;99.90;;;;;;5078621;28;20451;-71
2022/07/23 11:48:19;;;;;;;6.57;5.97;;;27.80;99.90;;;;;;5064556;28;20464;-73
2022/07/23 11:50:47;;;;;;;6.80;5.30;;;27.80;99.90;;;;;;5065189;28;20502;-76
2022/07/23 11:53:16;;;;;;;10.23;6.30;;;27.90;99.90;;;;;;5065305;28;20467;-76
2022/07/23 11:55:43;;;;;;;7.50;5.63;;;27.90;99.90;;;;;;5063852;28;20513;-77
2022/07/23 11:58:10;;;;;;;6.60;5.90;;;27.90;99.90;;;;;;5065373;28;20460;-77
2022/07/23 12:00:41;;;;;;;8.27;5.47;;;27.80;99.90;;;;;;5065300;28;20528;-76
2022/07/23 12:03:08;;;;;;;6.40;5.80;;;27.90;99.90;;;;;;5065170;28;20470;-77
2022/07/23 12:05:37;;;;;;;6.60;5.90;;;27.90;99.90;;;;;;5064437;28;20456;-76
2022/07/23 12:08:07;;;;;;;7.30;6.37;;;27.90;99.90;;;;;;5063948;28;20448;-76
2022/07/23 12:10:36;;;;;;;8.70;6.70;;;27.90;99.90;;;;;;5064943;28;20487;-76
2022/07/23 12:13:06;;;;;;;7.60;6.60;;;27.80;99.90;;;;;;5064995;28;20460;-76
2022/07/23 12:15:37;;;;;;;6.63;5.93;;;27.90;99.90;;;;;;5064327;28;20452;-76
2022/07/23 12:18:05;;;;;;;6.57;5.90;;;27.90;99.90;;;;;;5065216;28;20456;-76
2022/07/23 12:20:35;;;;;;;6.60;5.87;;;28.00;99.90;;;;;;5064748;28;20970;-76
2022/07/23 12:23:03;;;;;;;6.70;6.10;;;28.00;99.90;;;;;;5064910;28;20453;-77
2022/07/23 12:25:34;;;;;;;6.60;6.00;;;28.10;99.90;;;;;;5064437;28;20456;-76
2022/07/23 12:28:05;;;;;;;7.40;6.17;;;28.10;99.90;;;;;;5065325;28;20466;-76
2022/07/23 12:30:37;;;;;;;7.63;6.57;;;28.10;99.90;;;;;;5064387;28;20541;-76
2022/07/23 12:33:05;;;;;;;7.90;6.10;;;28.10;99.90;;;;;;5064676;28;20468;-76
2022/07/23 12:35:40;;;;;;;7.87;6.27;;;28.20;99.90;;;;;;5066854;28;20456;-76
2022/07/23 12:38:08;;;;;;;6.97;6.30;;;28.20;99.90;;;;;;5068438;28;20447;-76
2022/07/23 12:40:42;;;;;;;7.80;6.40;;;28.20;99.90;;;;;;5068189;28;20852;-76
2022/07/23 12:43:11;;;;;;;7.43;6.30;;;28.20;99.90;;;;;;5068765;28;20440;-76
2022/07/23 12:45:47;;;;;;;7.10;6.40;;;28.20;99.90;;;;;;5067932;28;20459;-76
2022/07/23 12:48:19;;;;;;;7.30;6.37;;;28.20;99.90;;;;;;5068716;28;20956;-76
2022/07/23 12:50:51;;;;;;;6.53;5.93;;;28.30;99.90;;;;;;5068196;28;21003;-76
2022/07/23 12:53:20;;;;;;;6.60;5.77;;;28.30;99.90;;;;;;5070369;28;20938;-75
2022/07/23 12:55:49;;;;;;;6.90;5.90;;;28.40;99.90;;;;;;5068156;28;20456;-76
2022/07/23 12:58:19;;;;;;;7.80;7.00;;;28.50;99.90;;;;;;5068086;28;20456;-76
2022/07/23 13:01:04;;;;;;;10.13;6.57;;;28.60;99.90;;;;;;5069316;28;20820;-76
2022/07/23 13:03:37;;;;;;;8.00;5.97;;;28.70;99.90;;;;;;5068605;28;20551;-76
2022/07/23 13:06:08;;;;;;;6.43;5.83;;;28.70;99.90;;;;;;5066852;28;20455;-76
2022/07/23 13:08:36;;;;;;;6.03;5.43;;;28.80;99.90;;;;;;5068460;28;20474;-77
2022/07/23 13:11:06;;;;;;;7.30;6.00;;;28.80;99.90;;;;;;5068246;28;20530;-76
2022/07/23 13:13:36;;;;;;;9.10;6.30;;;28.80;99.90;;;;;;5068027;28;21072;-76
2022/07/23 13:16:04;;;;;;;6.60;6.00;;;28.80;99.90;;;;;;5067108;28;20554;-75
2022/07/23 13:18:31;;;;;;;6.63;6.03;;;28.80;99.90;;;;;;5067835;28;20951;-76
2022/07/23 13:20:58;;;;;;;11.07;6.73;;;28.90;99.90;;;;;;5067734;28;20478;-76
2022/07/23 13:23:25;;;;;;;6.80;6.10;;;28.90;99.90;;;;;;5068214;28;20475;-76
2022/07/23 13:25:52;;;;;;;11.53;6.47;;;28.90;99.90;;;;;;5067146;28;20459;-76
2022/07/23 13:28:22;;;;;;;7.60;6.67;;;28.90;99.90;;;;;;5067745;28;20460;-76
2022/07/23 13:30:50;;;;;;;6.40;5.80;;;28.90;99.90;;;;;;5067271;28;20491;-76
2022/07/23 13:33:18;;;;;;;6.97;6.27;;;28.90;99.90;;;;;;5067551;28;20452;-76
2022/07/23 13:35:45;;;;;;;8.83;7.03;;;28.90;99.90;;;;;;5066864;28;20463;-76
2022/07/23 13:38:12;;;;;;;14.33;7.60;;;28.90;99.90;;;;;;5067840;28;20470;-76
2022/07/23 13:40:42;;;;;;;9.07;7.00;;;28.90;99.90;;;;;;5067518;28;20483;-76
2022/07/23 13:43:09;;;;;;;13.50;6.80;;;29.00;99.90;;;;;;5067221;28;20493;-76
2022/07/23 13:45:38;;;;;;;7.70;6.90;;;29.00;99.90;;;;;;5066559;28;20452;-76
2022/07/23 13:48:06;;;;;;;8.97;6.23;;;29.10;99.90;;;;;;5066945;28;20464;-76
2022/07/23 13:50:33;;;;;;;6.63;6.03;;;29.10;99.90;;;;;;5067518;28;20492;-76
2022/07/23 13:53:02;;;;;;;7.03;6.20;;;29.10;99.90;;;;;;5067487;28;20460;-76
2022/07/23 13:55:29;;;;;;;7.47;6.77;;;29.10;99.90;;;;;;5066616;28;21211;-76
2022/07/23 13:57:56;;;;;;;7.33;6.70;;;29.10;99.90;;;;;;5067321;28;20455;-76
2022/07/23 14:00:23;;;;;;;8.50;6.83;;;29.10;99.90;;;;;;5067301;28;20447;-76
2022/07/23 14:02:51;;;;;;;8.07;7.17;;;29.10;99.90;;;;;;5066953;28;21023;-70
2022/07/23 14:05:18;;;;;;;8.80;6.80;;;29.10;99.90;;;;;;5066614;28;21074;-72
2022/07/23 14:07:46;;;;;;;9.90;7.60;;;29.00;99.90;;;;;;5067040;28;20459;-71
2022/07/23 14:10:14;;;;;;;6.73;6.13;;;29.00;99.90;;;;;;5067163;28;20500;-72
2022/07/23 14:12:40;;;;;;;8.73;6.77;;;29.00;99.90;;;;;;5067045;28;20463;-72
2022/07/23 14:15:09;;;;;;;9.03;6.60;;;29.00;99.90;;;;;;5066134;28;20460;-68
2022/07/23 14:17:36;;;;;;;6.73;6.13;;;28.90;99.90;;;;;;5067144;28;20529;-72
2022/07/23 14:20:06;;;;;;;9.80;6.70;;;29.00;99.90;;;;;;5066559;28;20456;-73
2022/07/23 14:22:33;;;;;;;8.53;6.80;;;29.10;99.90;;;;;;5066666;28;20479;-72
2022/07/23 14:25:00;;;;;;;7.23;6.33;;;29.10;99.90;;;;;;5066088;28;20482;-72
2022/07/23 14:27:29;;;;;;;7.47;6.67;;;29.20;99.90;;;;;;5066748;28;20456;-72
2022/07/23 14:29:56;;;;;;;7.20;6.30;;;29.20;99.90;;;;;;5066635;28;20487;-72
2022/07/23 14:32:24;;;;;;;7.97;6.80;;;29.20;99.90;;;;;;5066342;28;20471;-72
2022/07/23 14:34:50;;;;;;;7.53;6.13;;;29.30;99.90;;;;;;5065939;28;20470;-72
2022/07/23 14:37:19;;;;;;;7.40;6.70;;;29.20;99.90;;;;;;5066742;28;20460;-71
2022/07/23 14:39:47;;;;;;;8.30;6.67;;;29.30;99.90;;;;;;5066633;28;20454;-73
2022/07/23 14:42:14;;;;;;;7.07;6.33;;;29.40;99.90;;;;;;5066011;28;20487;-73
2022/07/23 14:44:42;;;;;;;7.60;6.80;;;29.50;99.90;;;;;;5065506;28;20460;-71
2022/07/23 14:47:09;;;;;;;6.87;6.10;;;29.50;99.90;;;;;;5066382;28;20449;-73
2022/07/23 14:49:36;;;;;;;8.40;6.40;;;29.60;99.90;;;;;;5066161;28;20466;-72
2022/07/23 14:52:05;;;;;;;6.60;6.00;;;29.70;99.90;;;;;;5065665;28;20486;-72
2022/07/23 14:54:34;;;;;;;6.60;6.00;;;29.70;99.90;;;;;;5065190;28;20464;-72
2022/07/23 14:57:02;;;;;;;8.33;6.30;;;29.80;99.90;;;;;;5065621;28;20518;-73
2022/07/23 14:59:30;;;;;;;7.17;6.47;;;29.90;99.90;;;;;;5065896;28;20821;-72
2022/07/23 15:01:57;;;;;;;8.23;6.97;;;29.90;99.90;;;;;;5066161;28;20480;-72
2022/07/23 15:04:24;;;;;;;7.93;7.10;;;30.00;99.90;;;;;;5064788;28;21358;-71
2022/07/23 15:06:52;;;;;;;8.73;7.20;;;30.00;99.90;;;;;;5065355;28;20452;-72
2022/07/23 15:09:19;;;;;;;7.60;6.83;;;30.00;99.90;;;;;;5065579;28;20539;-71
2022/07/23 15:11:47;;;;;;;10.50;6.97;;;30.00;99.90;;;;;;5066032;28;20521;-72
2022/07/23 15:14:14;;;;;;;7.67;6.83;;;30.00;99.90;;;;;;5065258;28;20466;-72
2022/07/23 15:16:41;;;;;;;7.27;6.57;;;30.00;99.90;;;;;;5066620;28;20459;-72
2022/07/23 15:19:07;;;;;;;7.63;6.80;;;29.90;99.90;;;;;;5066067;28;20452;-72
2022/07/23 15:21:34;;;;;;;7.70;7.00;;;29.80;99.90;;;;;;5065398;28;20468;-72
2022/07/23 15:24:01;;;;;;;8.07;7.27;;;29.80;99.90;;;;;;5064922;28;20470;-72
2022/07/23 15:26:29;;;;;;;8.00;7.10;;;29.80;99.90;;;;;;5065985;28;20460;-72
2022/07/23 15:28:58;;;;;;;7.70;7.00;;;29.80;99.90;;;;;;5065605;28;20452;-72
2022/07/23 15:31:25;;;;;;;7.63;6.83;;;29.90;99.90;;;;;;5065181;28;20992;-72
2022/07/23 15:33:52;;;;;;;8.80;6.83;;;29.90;99.90;;;;;;5065643;28;20806;-72
2022/07/23 15:36:19;;;;;;;9.87;7.87;;;29.90;99.90;;;;;;5064977;28;20456;-72
2022/07/23 15:38:46;;;;;;;7.90;7.20;;;30.00;99.90;;;;;;5065289;28;20972;-72
2022/07/23 15:41:13;;;;;;;8.53;6.87;;;30.00;99.90;;;;;;5065483;28;20476;-71
2022/07/23 15:43:40;;;;;;;8.37;7.57;;;30.10;99.90;;;;;;5065443;28;20466;-71
2022/07/23 15:46:08;;;;;;;8.13;7.03;;;30.20;99.90;;;;;;5068693;28;20458;-71
2022/07/23 15:48:37;;;;;;;7.50;6.80;;;30.30;99.90;;;;;;5068458;28;20471;-71
2022/07/23 15:51:05;;;;;;;10.20;7.37;;;30.30;99.90;;;;;;5067083;28;20894;-72
2022/07/23 15:53:32;;;;;;;9.83;7.43;;;30.40;99.90;;;;;;5065608;28;20472;-77
2022/07/23 15:56:00;;;;;;;10.47;9.40;;;30.40;99.90;;;;;;5064759;28;20554;-76
2022/07/23 15:58:28;;;;;;;8.27;7.53;;;30.40;99.90;;;;;;5065348;28;21090;-76
2022/07/23 16:00:55;;;;;;;8.23;7.53;;;30.40;99.90;;;;;;5065379;28;20483;-75
2022/07/23 16:03:23;;;;;;;8.20;7.40;;;30.50;99.90;;;;;;5065112;28;20452;-75
2022/07/23 16:05:50;;;;;;;8.30;7.50;;;30.60;99.90;;;;;;5064381;28;20466;-69
2022/07/23 16:08:17;;;;;;;9.73;8.70;;;30.60;99.90;;;;;;5065322;28;20838;-71
2022/07/23 16:10:44;;;;;;;9.43;8.07;;;30.70;99.90;;;;;;5067976;28;20500;-72
2022/07/23 16:13:11;;;;;;;8.73;7.83;;;30.60;99.90;;;;;;5069085;28;21107;-72
2022/07/23 16:15:40;;;;;;;7.90;7.10;;;30.70;99.90;;;;;;5068066;28;20947;-72
2022/07/23 16:18:08;;;;;;;10.70;8.33;;;30.60;99.90;;;;;;5069207;28;20467;-72
2022/07/23 16:20:36;;;;;;;9.20;8.13;;;30.60;99.90;;;;;;5069267;28;20444;-71
2022/07/23 16:23:03;;;;;;;24.47;17.43;;;30.50;99.90;;;;;;5068997;28;20462;-70
2022/07/23 16:25:31;;;;;;;9.57;8.57;;;30.60;99.90;;;;;;5068217;28;20467;-70
2022/07/23 16:27:57;;;;;;;9.33;8.43;;;30.60;99.90;;;;;;5068676;28;20519;-70
2022/07/23 16:30:24;;;;;;;10.57;8.07;;;30.60;99.90;;;;;;5069137;28;20502;-77
2022/07/23 16:32:51;;;;;;;9.63;7.50;;;30.60;99.90;;;;;;5068835;28;20463;-77
2022/07/23 16:35:18;;;;;;;9.87;7.50;;;30.60;99.90;;;;;;5068437;28;20464;-77
2022/07/23 16:37:46;;;;;;;9.63;8.40;;;30.60;99.90;;;;;;5068707;28;21033;-77
2022/07/23 16:40:13;;;;;;;9.50;8.53;;;30.50;99.90;;;;;;5069016;28;20456;-77
2022/07/23 16:42:40;;;;;;;12.70;8.97;;;30.50;99.90;;;;;;5068666;28;20470;-77
2022/07/23 16:45:09;;;;;;;10.17;9.00;;;30.50;99.90;;;;;;5067629;28;20455;-76
2022/07/23 16:47:36;;;;;;;8.80;7.83;;;30.40;99.90;;;;;;5068434;28;20570;-77
2022/07/23 16:50:03;;;;;;;9.43;8.50;;;30.40;99.90;;;;;;5068850;28;20582;-77
2022/07/23 16:52:30;;;;;;;9.17;8.10;;;30.40;99.90;;;;;;5068458;28;20482;-77
2022/07/23 16:54:58;;;;;;;9.03;7.50;;;30.40;99.90;;;;;;5067800;28;20456;-77
2022/07/23 16:57:25;;;;;;;8.53;7.70;;;30.40;99.90;;;;;;5066924;28;20464;-77
2022/07/23 16:59:55;;;;;;;8.67;7.87;;;30.40;99.90;;;;;;5067211;28;20455;-77
2022/07/23 17:02:22;;;;;;;11.70;8.50;;;30.40;99.90;;;;;;5067443;28;20480;-78
2022/07/23 17:04:50;;;;;;;11.53;8.83;;;30.40;99.90;;;;;;5066743;28;20456;-76
2022/07/23 17:07:17;;;;;;;8.73;7.83;;;30.40;99.90;;;;;;5067526;28;20456;-76
2022/07/23 17:09:44;;;;;;;9.23;7.70;;;30.30;99.90;;;;;;5067357;28;20455;-77
2022/07/23 17:12:12;;;;;;;12.23;8.83;;;30.30;99.90;;;;;;5066847;28;20500;-77
2022/07/23 17:14:39;;;;;;;9.30;8.40;;;30.30;99.90;;;;;;5066393;28;20464;-77
2022/07/23 17:17:06;;;;;;;9.60;8.60;;;30.20;99.90;;;;;;5067305;28;20464;-76
2022/07/23 17:19:33;;;;;;;8.60;7.70;;;30.10;99.90;;;;;;5067340;28;20459;-76
2022/07/23 17:22:00;;;;;;;10.30;7.80;;;30.10;99.90;;;;;;5066505;28;20482;-76
2022/07/23 17:24:27;;;;;;;9.93;8.27;;;30.00;99.90;;;;;;5066253;28;20513;-76
2022/07/23 17:26:54;;;;;;;11.00;8.47;;;30.00;99.90;;;;;;5069290;28;20953;-75
2022/07/23 17:29:25;;;;;;;8.73;7.77;;;29.90;99.90;;;;;;5076464;28;20458;-76
2022/07/23 17:31:51;;;;;;;8.47;7.67;;;29.80;99.90;;;;;;5072206;28;20597;-76
2022/07/23 17:34:18;;;;;;;8.33;7.43;;;29.80;99.90;;;;;;5066469;28;20459;-75
2022/07/23 17:36:45;;;;;;;9.20;8.20;;;29.70;99.90;;;;;;5066857;28;20474;-76
2022/07/23 17:39:12;;;;;;;13.17;8.87;;;29.60;99.90;;;;;;5066902;28;20452;-76
2022/07/23 17:41:46;;;;;;;11.17;7.97;;;29.60;99.90;;;;;;5066934;28;20463;-75
2022/07/23 17:44:13;;;;;;;8.93;8.03;;;29.50;99.90;;;;;;5066090;28;20848;-76
2022/07/23 17:46:42;;;;;;;9.50;8.30;;;29.50;99.90;;;;;;5066769;28;20827;-76
2022/07/23 17:49:09;;;;;;;9.20;8.30;;;29.40;99.90;;;;;;5066647;28;21027;-76
2022/07/23 17:51:36;;;;;;;10.10;8.87;;;29.40;99.90;;;;;;5066430;28;20552;-75
2022/07/23 17:54:05;;;;;;;10.20;8.40;;;29.40;99.90;;;;;;5064997;28;20839;-76
2022/07/23 17:56:32;;;;;;;9.60;8.70;;;29.30;99.90;;;;;;5066467;28;20456;-75
2022/07/23 17:58:59;;;;;;;9.80;8.67;;;29.30;99.90;;;;;;5066063;28;20543;-75
2022/07/23 18:01:25;;;;;;;10.23;8.40;;;29.20;99.90;;;;;;5066809;28;20472;-76
2022/07/23 18:03:54;;;;;;;9.50;8.00;;;29.20;99.90;;;;;;5066390;28;20483;-76
2022/07/23 18:06:21;;;;;;;10.30;8.23;;;29.20;99.90;;;;;;5065395;28;20852;-76
2022/07/23 18:08:47;;;;;;;10.67;8.30;;;29.20;99.90;;;;;;5066598;28;20572;-76
2022/07/23 18:11:14;;;;;;;10.10;8.93;;;29.10;99.90;;;;;;5066341;28;20492;-74
2022/07/23 18:13:41;;;;;;;9.30;8.50;;;29.00;99.90;;;;;;5065721;28;20466;-75
2022/07/23 18:16:08;;;;;;;9.47;8.47;;;29.00;99.90;;;;;;5065206;28;20452;-75
2022/07/23 18:18:36;;;;;;;9.57;8.57;;;28.90;99.90;;;;;;5065990;28;20538;-75
2022/07/23 18:21:05;;;;;;;9.73;8.43;;;28.90;99.90;;;;;;5065581;28;20529;-74
2022/07/23 18:23:33;;;;;;;11.67;9.23;;;28.80;99.90;;;;;;5066078;28;20475;-76
2022/07/23 18:26:00;;;;;;;10.10;9.10;;;28.70;99.90;;;;;;5065636;28;20578;-76
2022/07/23 18:28:27;;;;;;;9.57;8.67;;;28.70;99.90;;;;;;5065012;28;21322;-76
2022/07/23 18:30:54;;;;;;;10.23;8.73;;;28.60;99.90;;;;;;5066188;28;20494;-76
2022/07/23 18:33:21;;;;;;;11.87;9.50;;;28.50;99.90;;;;;;5065664;28;20542;-76
2022/07/23 18:35:48;;;;;;;9.40;8.50;;;28.50;99.90;;;;;;5065189;28;20452;-75
2022/07/23 18:38:17;;;;;;;10.70;9.00;;;28.40;99.90;;;;;;5064907;28;20462;-76
2022/07/23 18:40:43;;;;;;;9.60;8.63;;;28.40;99.90;;;;;;5066180;28;20488;-76
2022/07/23 18:43:10;;;;;;;9.40;8.50;;;28.30;99.90;;;;;;5066620;28;20456;-76
2022/07/23 18:45:37;;;;;;;8.80;7.90;;;28.30;99.90;;;;;;5065592;28;20469;-76
2022/07/23 18:48:05;;;;;;;11.03;8.57;;;28.20;99.90;;;;;;5066207;28;20468;-75
2022/07/23 18:50:33;;;;;;;9.90;8.73;;;28.20;99.90;;;;;;5066490;28;20452;-76
2022/07/23 18:53:00;;;;;;;10.87;8.57;;;28.10;99.90;;;;;;5066441;28;20503;-76
2022/07/23 18:55:28;;;;;;;9.83;8.83;;;28.10;99.90;;;;;;5066056;28;20460;-76
2022/07/23 18:57:59;;;;;;;10.00;9.00;;;28.10;99.90;;;;;;5066288;28;20466;-76
2022/07/23 19:00:26;;;;;;;11.90;8.60;;;28.10;99.90;;;;;;5065911;28;20459;-76
2022/07/23 19:02:53;;;;;;;8.80;8.00;;;28.00;99.90;;;;;;5070051;28;20448;-75
2022/07/23 19:05:20;;;;;;;9.13;8.23;;;28.00;99.90;;;;;;5066253;28;20955;-75
2022/07/23 19:07:46;;;;;;;12.30;7.93;;;27.90;99.90;;;;;;5065919;28;20460;-76
2022/07/23 19:10:13;;;;;;;12.43;9.00;;;27.90;99.90;;;;;;5064702;28;20455;-74
2022/07/23 19:12:42;;;;;;;10.80;9.20;;;27.80;99.90;;;;;;5064896;28;20500;-75
2022/07/23 19:15:10;;;;;;;9.97;8.90;;;27.80;99.90;;;;;;5064540;28;20547;-75
2022/07/23 19:17:39;;;;;;;10.23;8.33;;;27.70;99.90;;;;;;5065263;28;20474;-76
2022/07/23 19:20:08;;;;;;;11.40;8.67;;;27.70;99.90;;;;;;5065162;28;20466;-75
2022/07/23 19:22:35;;;;;;;12.30;9.77;;;27.60;99.90;;;;;;5064512;28;20840;-75
2022/07/23 19:25:02;;;;;;;10.70;9.30;;;27.60;99.90;;;;;;5064216;28;20459;-75
2022/07/23 19:27:29;;;;;;;12.53;9.30;;;27.50;99.90;;;;;;5065121;28;20466;-75
2022/07/23 19:29:57;;;;;;;12.13;8.90;;;27.50;99.90;;;;;;5065059;28;20470;-75
2022/07/23 19:32:24;;;;;;;12.23;8.70;;;27.40;99.90;;;;;;5064443;28;20488;-75
2022/07/23 19:34:51;;;;;;;9.70;8.77;;;27.40;99.90;;;;;;5063743;28;20455;-75
2022/07/23 19:37:18;;;;;;;10.03;8.60;;;27.30;99.90;;;;;;5064742;28;20952;-75
2022/07/23 19:39:45;;;;;;;11.70;8.90;;;27.30;99.90;;;;;;5064527;28;20452;-75
2022/07/23 19:42:14;;;;;;;9.83;8.87;;;27.30;99.90;;;;;;5064271;28;21003;-75
2022/07/23 19:44:40;;;;;;;9.60;8.10;;;27.20;99.90;;;;;;5063572;28;21454;-75
2022/07/23 19:47:09;;;;;;;10.33;8.80;;;27.20;99.90;;;;;;5064555;28;20447;-75
2022/07/23 19:49:36;;;;;;;9.50;8.50;;;27.20;99.90;;;;;;5064751;28;20460;-75
2022/07/23 19:52:03;;;;;;;12.30;9.27;;;27.20;99.90;;;;;;5064413;28;20590;-75
2022/07/23 19:54:30;;;;;;;16.53;9.20;;;27.10;99.90;;;;;;5063629;28;20575;-75
2022/07/23 19:56:56;;;;;;;10.60;9.60;;;27.10;99.90;;;;;;5064612;28;20555;-76
2022/07/23 19:59:23;;;;;;;12.10;9.97;;;27.00;99.90;;;;;;5064425;28;20845;-75
2022/07/23 20:01:50;;;;;;;12.07;10.10;;;27.00;99.90;;;;;;5064353;28;20476;-75
2022/07/23 20:04:18;;;;;;;16.70;11.17;;;27.00;99.90;;;;;;5064016;28;20543;-75
2022/07/23 20:06:45;;;;;;;10.57;9.50;;;26.90;99.90;;;;;;5064257;28;20464;-75
2022/07/23 20:09:12;;;;;;;11.27;10.10;;;26.90;99.90;;;;;;5064206;28;20985;-75
2022/07/23 20:11:39;;;;;;;15.13;11.10;;;26.80;99.90;;;;;;5064301;28;20492;-76
2022/07/23 20:14:07;;;;;;;19.30;10.70;;;26.70;99.90;;;;;;5064363;28;20458;-75
2022/07/23 20:16:34;;;;;;;12.90;10.37;;;26.70;99.90;;;;;;5065237;28;20456;-76
2022/07/23 20:19:01;;;;;;;11.80;10.60;;;26.70;99.90;;;;;;5065997;28;20850;-76
2022/07/23 20:21:29;;;;;;;10.80;9.70;;;26.60;99.90;;;;;;5065723;28;20471;-76
2022/07/23 20:23:57;;;;;;;11.10;10.00;;;26.60;99.90;;;;;;5065101;28;20452;-75
2022/07/23 20:26:24;;;;;;;10.10;9.07;;;26.50;99.90;;;;;;5065076;28;20459;-75
2022/07/23 20:28:51;;;;;;;11.93;10.10;;;26.50;99.90;;;;;;5065018;28;20544;-75
2022/07/23 20:31:18;;;;;;;12.63;9.80;;;26.40;99.90;;;;;;5064684;28;20486;-76
2022/07/23 20:33:44;;;;;;;10.90;8.90;;;26.40;99.90;;;;;;5064889;28;20936;-75
2022/07/23 20:36:11;;;;;;;11.67;10.50;;;26.30;99.90;;;;;;5063585;28;20462;-75
2022/07/23 20:38:39;;;;;;;11.00;9.90;;;26.30;99.90;;;;;;5064430;28;20830;-76
2022/07/23 20:41:06;;;;;;;11.27;10.13;;;26.30;99.90;;;;;;5065074;28;20476;-76